sensor_id;sensor_type;location;lat;lon;timestamp;pressure;altitude;pressure_sealevel;temperature;humidity
31346;BME280;21711;49.708;18.568;2022-08-19T00:02:13;96831.44;;;23.67;85.33
31346;BME280;21711;49.708;18.568;2022-08-19T00:04:40;96835.78;;;23.75;84.60
31346;BME280;21711;49.708;18.568;2022-08-19T00:07:08;96840.56;;;23.93;82.77
31346;BME280;21711;49.708;18.568;2022-08-19T00:09:35;96828.19;;;23.88;83.91
31346;BME280;21711;49.708;18.568;2022-08-19T00:12:03;96825.50;;;23.91;82.89
31346;BME280;21711;49.708;18.568;2022-08-19T00:14:31;96820.06;;;23.84;83.79
31346;BME280;21711;49.708;18.568;2022-08-19T00:17:00;96815.44;;;23.85;83.59
31346;BME280;21711;49.708;18.568;2022-08-19T00:19:28;96816.13;;;23.78;85.16
31346;BME280;21711;49.708;18.568;2022-08-19T00:21:56;96815.72;;;23.72;84.91
31346;BME280;21711;49.708;18.568;2022-08-19T00:24:23;96806.00;;;23.64;85.79
31346;BME280;21711;49.708;18.568;2022-08-19T00:26:52;96799.78;;;23.60;87.01
31346;BME280;21711;49.708;18.568;2022-08-19T00:29:21;96806.78;;;23.64;84.47
31346;BME280;21711;49.708;18.568;2022-08-19T00:31:50;96794.50;;;23.74;83.43
31346;BME280;21711;49.708;18.568;2022-08-19T00:34:21;96801.03;;;23.70;83.44
31346;BME280;21711;49.708;18.568;2022-08-19T00:36:48;96803.75;;;23.73;83.78
31346;BME280;21711;49.708;18.568;2022-08-19T00:39:17;96790.09;;;23.55;85.51
31346;BME280;21711;49.708;18.568;2022-08-19T00:41:46;96793.50;;;23.48;83.93
31346;BME280;21711;49.708;18.568;2022-08-19T00:44:27;96795.81;;;23.50;86.62
31346;BME280;21711;49.708;18.568;2022-08-19T00:46:57;96787.72;;;23.50;83.77
31346;BME280;21711;49.708;18.568;2022-08-19T00:49:46;96788.63;;;23.61;81.99
31346;BME280;21711;49.708;18.568;2022-08-19T00:52:31;96780.50;;;23.58;83.22
31346;BME280;21711;49.708;18.568;2022-08-19T00:55:00;96798.16;;;23.51;80.82
31346;BME280;21711;49.708;18.568;2022-08-19T00:57:38;96787.31;;;23.48;84.42
31346;BME280;21711;49.708;18.568;2022-08-19T01:00:12;96771.13;;;23.48;80.67
31346;BME280;21711;49.708;18.568;2022-08-19T01:02:42;96785.75;;;23.43;82.39
31346;BME280;21711;49.708;18.568;2022-08-19T01:05:14;96781.25;;;23.58;79.57
31346;BME280;21711;49.708;18.568;2022-08-19T01:07:42;96769.38;;;23.63;80.26
31346;BME280;21711;49.708;18.568;2022-08-19T01:10:25;96763.00;;;23.44;81.42
31346;BME280;21711;49.708;18.568;2022-08-19T01:12:55;96785.69;;;23.40;80.03
31346;BME280;21711;49.708;18.568;2022-08-19T01:15:31;96768.75;;;23.39;80.36
31346;BME280;21711;49.708;18.568;2022-08-19T01:18:04;96757.69;;;23.51;79.06
31346;BME280;21711;49.708;18.568;2022-08-19T01:20:33;96765.50;;;23.60;78.77
31346;BME280;21711;49.708;18.568;2022-08-19T01:23:02;96760.34;;;23.48;82.11
31346;BME280;21711;49.708;18.568;2022-08-19T01:25:49;96762.78;;;23.26;84.68
31346;BME280;21711;49.708;18.568;2022-08-19T01:28:23;96763.53;;;22.89;89.48
31346;BME280;21711;49.708;18.568;2022-08-19T01:31:10;96759.09;;;22.73;89.28
31346;BME280;21711;49.708;18.568;2022-08-19T01:33:56;96761.88;;;22.80;87.82
31346;BME280;21711;49.708;18.568;2022-08-19T01:36:31;96762.22;;;22.75;91.09
31346;BME280;21711;49.708;18.568;2022-08-19T01:39:04;96758.69;;;22.44;95.12
31346;BME280;21711;49.708;18.568;2022-08-19T01:41:33;96764.69;;;22.33;95.19
31346;BME280;21711;49.708;18.568;2022-08-19T01:44:02;96762.84;;;22.14;96.45
31346;BME280;21711;49.708;18.568;2022-08-19T01:46:47;96754.69;;;22.07;98.61
31346;BME280;21711;49.708;18.568;2022-08-19T01:49:16;96754.50;;;21.96;97.59
31346;BME280;21711;49.708;18.568;2022-08-19T01:51:44;96758.84;;;22.01;100.00
31346;BME280;21711;49.708;18.568;2022-08-19T01:54:16;96750.16;;;21.88;100.00
31346;BME280;21711;49.708;18.568;2022-08-19T01:57:08;96752.69;;;21.77;100.00
31346;BME280;21711;49.708;18.568;2022-08-19T01:59:38;96756.00;;;21.70;100.00
31346;BME280;21711;49.708;18.568;2022-08-19T02:02:07;96756.13;;;21.77;99.31
31346;BME280;21711;49.708;18.568;2022-08-19T02:04:35;96746.63;;;21.84;97.60
31346;BME280;21711;49.708;18.568;2022-08-19T02:07:06;96738.84;;;21.78;99.28
31346;BME280;21711;49.708;18.568;2022-08-19T02:09:35;96747.34;;;21.80;97.98
31346;BME280;21711;49.708;18.568;2022-08-19T02:12:04;96746.25;;;21.85;98.23
31346;BME280;21711;49.708;18.568;2022-08-19T02:14:35;96752.00;;;21.84;99.74
31346;BME280;21711;49.708;18.568;2022-08-19T02:17:03;96744.72;;;21.84;96.51
31346;BME280;21711;49.708;18.568;2022-08-19T02:19:31;96749.31;;;21.84;99.52
31346;BME280;21711;49.708;18.568;2022-08-19T02:22:00;96750.75;;;21.77;100.00
31346;BME280;21711;49.708;18.568;2022-08-19T02:24:28;96743.97;;;21.64;100.00
31346;BME280;21711;49.708;18.568;2022-08-19T02:26:55;96737.81;;;21.63;100.00
31346;BME280;21711;49.708;18.568;2022-08-19T02:29:22;96748.66;;;21.90;93.90
31346;BME280;21711;49.708;18.568;2022-08-19T02:31:50;96747.06;;;22.40;88.71
31346;BME280;21711;49.708;18.568;2022-08-19T02:34:18;96746.97;;;22.59;83.59
31346;BME280;21711;49.708;18.568;2022-08-19T02:36:46;96749.72;;;22.94;80.95
31346;BME280;21711;49.708;18.568;2022-08-19T02:39:18;96750.66;;;23.09;79.61
31346;BME280;21711;49.708;18.568;2022-08-19T02:41:45;96744.91;;;23.10;78.58
31346;BME280;21711;49.708;18.568;2022-08-19T02:44:13;96743.00;;;23.49;74.93
31346;BME280;21711;49.708;18.568;2022-08-19T02:46:57;96742.19;;;23.86;72.28
31346;BME280;21711;49.708;18.568;2022-08-19T02:49:24;96747.75;;;24.08;70.85
31346;BME280;21711;49.708;18.568;2022-08-19T02:51:52;96732.03;;;24.21;68.91
31346;BME280;21711;49.708;18.568;2022-08-19T02:54:19;96734.00;;;24.24;68.81
31346;BME280;21711;49.708;18.568;2022-08-19T02:56:47;96736.66;;;24.21;67.95
31346;BME280;21711;49.708;18.568;2022-08-19T02:59:14;96732.50;;;24.34;66.62
31346;BME280;21711;49.708;18.568;2022-08-19T03:01:42;96739.16;;;24.48;66.32
31346;BME280;21711;49.708;18.568;2022-08-19T03:04:13;96746.44;;;24.36;67.30
31346;BME280;21711;49.708;18.568;2022-08-19T03:06:45;96747.47;;;24.21;68.83
31346;BME280;21711;49.708;18.568;2022-08-19T03:09:14;96747.41;;;24.10;69.48
31346;BME280;21711;49.708;18.568;2022-08-19T03:11:42;96755.78;;;24.01;69.52
31346;BME280;21711;49.708;18.568;2022-08-19T03:14:10;96755.81;;;24.04;68.49
31346;BME280;21711;49.708;18.568;2022-08-19T03:16:52;96752.31;;;24.00;68.00
31346;BME280;21711;49.708;18.568;2022-08-19T03:19:20;96760.50;;;24.11;68.25
31346;BME280;21711;49.708;18.568;2022-08-19T03:21:49;96751.16;;;23.98;69.66
31346;BME280;21711;49.708;18.568;2022-08-19T03:24:18;96763.06;;;23.97;68.89
31346;BME280;21711;49.708;18.568;2022-08-19T03:26:50;96762.66;;;23.91;69.33
31346;BME280;21711;49.708;18.568;2022-08-19T03:29:19;96759.91;;;23.87;69.62
31346;BME280;21711;49.708;18.568;2022-08-19T03:32:00;96762.94;;;23.78;70.63
31346;BME280;21711;49.708;18.568;2022-08-19T03:34:32;96769.03;;;23.72;69.51
31346;BME280;21711;49.708;18.568;2022-08-19T03:37:10;96769.06;;;23.75;70.04
31346;BME280;21711;49.708;18.568;2022-08-19T03:39:40;96772.00;;;23.59;71.47
31346;BME280;21711;49.708;18.568;2022-08-19T03:42:10;96766.91;;;23.50;71.30
31346;BME280;21711;49.708;18.568;2022-08-19T03:44:58;96767.09;;;23.31;74.34
31346;BME280;21711;49.708;18.568;2022-08-19T03:47:25;96764.59;;;23.15;79.95
31346;BME280;21711;49.708;18.568;2022-08-19T03:49:53;96782.69;;;22.83;83.11
31346;BME280;21711;49.708;18.568;2022-08-19T03:52:20;96783.56;;;22.61;82.62
31346;BME280;21711;49.708;18.568;2022-08-19T03:54:47;96781.47;;;22.50;84.23
31346;BME280;21711;49.708;18.568;2022-08-19T03:57:15;96785.44;;;22.33;86.96
31346;BME280;21711;49.708;18.568;2022-08-19T03:59:42;96788.34;;;22.20;84.43
31346;BME280;21711;49.708;18.568;2022-08-19T04:02:12;96801.34;;;22.15;87.51
31346;BME280;21711;49.708;18.568;2022-08-19T04:04:42;96798.53;;;22.07;88.25
31346;BME280;21711;49.708;18.568;2022-08-19T04:07:12;96804.09;;;21.95;92.34
31346;BME280;21711;49.708;18.568;2022-08-19T04:09:43;96797.88;;;21.91;90.27
31346;BME280;21711;49.708;18.568;2022-08-19T04:12:10;96797.56;;;21.96;92.49
31346;BME280;21711;49.708;18.568;2022-08-19T04:14:38;96797.53;;;21.92;94.99
31346;BME280;21711;49.708;18.568;2022-08-19T04:17:06;96803.97;;;21.88;91.38
31346;BME280;21711;49.708;18.568;2022-08-19T04:19:35;96805.25;;;21.94;91.25
31346;BME280;21711;49.708;18.568;2022-08-19T04:22:03;96807.91;;;22.17;92.61
31346;BME280;21711;49.708;18.568;2022-08-19T04:24:31;96812.06;;;22.11;93.84
31346;BME280;21711;49.708;18.568;2022-08-19T04:27:00;96811.41;;;22.18;91.46
31346;BME280;21711;49.708;18.568;2022-08-19T04:29:29;96804.16;;;22.22;96.37
31346;BME280;21711;49.708;18.568;2022-08-19T04:31:58;96820.44;;;22.33;84.13
31346;BME280;21711;49.708;18.568;2022-08-19T04:34:35;96832.19;;;22.71;86.96
31346;BME280;21711;49.708;18.568;2022-08-19T04:37:23;96816.00;;;22.98;82.69
31346;BME280;21711;49.708;18.568;2022-08-19T04:39:51;96821.53;;;23.40;79.88
31346;BME280;21711;49.708;18.568;2022-08-19T04:42:38;96821.00;;;23.61;81.78
31346;BME280;21711;49.708;18.568;2022-08-19T04:45:13;96817.97;;;23.67;82.78
31346;BME280;21711;49.708;18.568;2022-08-19T04:47:44;96830.41;;;23.78;82.26
31346;BME280;21711;49.708;18.568;2022-08-19T04:50:27;96827.94;;;24.04;81.14
31346;BME280;21711;49.708;18.568;2022-08-19T04:52:55;96831.16;;;24.17;81.66
31346;BME280;21711;49.708;18.568;2022-08-19T04:55:24;96831.16;;;24.13;84.90
31346;BME280;21711;49.708;18.568;2022-08-19T04:57:54;96824.78;;;23.95;84.89
31346;BME280;21711;49.708;18.568;2022-08-19T05:00:22;96830.34;;;24.09;83.18
31346;BME280;21711;49.708;18.568;2022-08-19T05:02:50;96835.03;;;24.20;79.08
31346;BME280;21711;49.708;18.568;2022-08-19T05:05:18;96817.84;;;24.42;83.75
31346;BME280;21711;49.708;18.568;2022-08-19T05:07:47;96832.47;;;24.38;81.81
31346;BME280;21711;49.708;18.568;2022-08-19T05:10:14;96817.59;;;24.62;80.81
31346;BME280;21711;49.708;18.568;2022-08-19T05:12:42;96825.03;;;24.80;75.88
31346;BME280;21711;49.708;18.568;2022-08-19T05:15:10;96833.75;;;25.15;72.65
31346;BME280;21711;49.708;18.568;2022-08-19T05:17:38;96831.19;;;25.66;68.13
31346;BME280;21711;49.708;18.568;2022-08-19T05:20:25;96832.81;;;26.07;72.06
31346;BME280;21711;49.708;18.568;2022-08-19T05:23:11;96842.50;;;26.11;68.55
31346;BME280;21711;49.708;18.568;2022-08-19T05:25:50;96833.22;;;26.52;71.70
31346;BME280;21711;49.708;18.568;2022-08-19T05:28:20;96847.84;;;27.06;69.43
31346;BME280;21711;49.708;18.568;2022-08-19T05:30:48;96837.59;;;27.50;63.83
31346;BME280;21711;49.708;18.568;2022-08-19T05:33:18;96847.97;;;27.70;59.80
31346;BME280;21711;49.708;18.568;2022-08-19T05:35:45;96844.53;;;27.62;64.55
31346;BME280;21711;49.708;18.568;2022-08-19T05:38:13;96852.19;;;27.75;59.69
31346;BME280;21711;49.708;18.568;2022-08-19T05:40:40;96852.94;;;27.79;63.45
31346;BME280;21711;49.708;18.568;2022-08-19T05:43:08;96859.19;;;27.72;65.12
31346;BME280;21711;49.708;18.568;2022-08-19T05:45:41;96857.31;;;27.62;67.46
31346;BME280;21711;49.708;18.568;2022-08-19T05:48:11;96863.47;;;27.73;63.03
31346;BME280;21711;49.708;18.568;2022-08-19T05:50:40;96857.72;;;27.53;62.96
31346;BME280;21711;49.708;18.568;2022-08-19T05:53:08;96858.09;;;27.55;58.62
31346;BME280;21711;49.708;18.568;2022-08-19T05:55:36;96862.78;;;28.15;60.98
31346;BME280;21711;49.708;18.568;2022-08-19T05:58:05;96866.56;;;28.32;58.40
31346;BME280;21711;49.708;18.568;2022-08-19T06:00:36;96870.94;;;28.18;56.03
31346;BME280;21711;49.708;18.568;2022-08-19T06:03:04;96864.56;;;28.43;54.96
31346;BME280;21711;49.708;18.568;2022-08-19T06:05:39;96868.06;;;28.40;57.22
31346;BME280;21711;49.708;18.568;2022-08-19T06:08:18;96872.31;;;28.45;58.20
31346;BME280;21711;49.708;18.568;2022-08-19T06:10:45;96868.94;;;29.45;51.74
31346;BME280;21711;49.708;18.568;2022-08-19T06:13:13;96880.78;;;30.21;51.75
31346;BME280;21711;49.708;18.568;2022-08-19T06:15:40;96894.09;;;31.11;52.66
31346;BME280;21711;49.708;18.568;2022-08-19T06:18:10;96888.19;;;31.73;45.67
31346;BME280;21711;49.708;18.568;2022-08-19T06:20:38;96890.97;;;32.40;44.00
31346;BME280;21711;49.708;18.568;2022-08-19T06:23:22;96885.44;;;32.60;43.08
31346;BME280;21711;49.708;18.568;2022-08-19T06:25:50;96883.13;;;32.88;43.42
31346;BME280;21711;49.708;18.568;2022-08-19T06:28:17;96898.06;;;33.60;43.46
31346;BME280;21711;49.708;18.568;2022-08-19T06:30:45;96897.97;;;34.15;41.02
31346;BME280;21711;49.708;18.568;2022-08-19T06:33:12;96905.41;;;34.28;39.76
31346;BME280;21711;49.708;18.568;2022-08-19T06:35:40;96900.88;;;34.60;40.66
31346;BME280;21711;49.708;18.568;2022-08-19T06:38:08;96900.06;;;34.72;38.91
31346;BME280;21711;49.708;18.568;2022-08-19T06:40:36;96899.25;;;35.07;39.94
31346;BME280;21711;49.708;18.568;2022-08-19T06:43:05;96906.81;;;35.16;39.06
31346;BME280;21711;49.708;18.568;2022-08-19T06:45:37;96909.47;;;36.15;39.24
31346;BME280;21711;49.708;18.568;2022-08-19T06:48:05;96910.03;;;36.60;35.96
31346;BME280;21711;49.708;18.568;2022-08-19T06:50:34;96918.31;;;37.07;36.03
31346;BME280;21711;49.708;18.568;2022-08-19T06:53:05;96932.22;;;37.50;36.93
31346;BME280;21711;49.708;18.568;2022-08-19T06:55:33;96927.84;;;38.20;35.37
31346;BME280;21711;49.708;18.568;2022-08-19T06:58:04;96935.00;;;38.51;36.91
31346;BME280;21711;49.708;18.568;2022-08-19T07:00:32;96922.69;;;38.03;33.30
31346;BME280;21711;49.708;18.568;2022-08-19T07:03:00;96924.38;;;37.67;35.80
31346;BME280;21711;49.708;18.568;2022-08-19T07:05:41;96926.19;;;36.30;37.29
31346;BME280;21711;49.708;18.568;2022-08-19T07:08:13;96930.50;;;35.45;39.82
31346;BME280;21711;49.708;18.568;2022-08-19T07:10:46;96922.88;;;34.21;45.20
31346;BME280;21711;49.708;18.568;2022-08-19T07:13:13;96930.94;;;33.60;46.95
31346;BME280;21711;49.708;18.568;2022-08-19T07:15:41;96932.53;;;33.14;49.31
31346;BME280;21711;49.708;18.568;2022-08-19T07:18:09;96936.47;;;32.50;50.71
31346;BME280;21711;49.708;18.568;2022-08-19T07:20:39;96939.03;;;31.87;51.14
31346;BME280;21711;49.708;18.568;2022-08-19T07:23:08;96945.47;;;31.77;55.32
31346;BME280;21711;49.708;18.568;2022-08-19T07:25:42;96948.66;;;31.35;57.19
31346;BME280;21711;49.708;18.568;2022-08-19T07:28:10;96947.38;;;30.95;60.98
31346;BME280;21711;49.708;18.568;2022-08-19T07:30:51;96944.31;;;30.69;62.50
31346;BME280;21711;49.708;18.568;2022-08-19T07:33:19;96953.03;;;30.33;64.67
31346;BME280;21711;49.708;18.568;2022-08-19T07:35:47;96947.72;;;30.26;63.91
31346;BME280;21711;49.708;18.568;2022-08-19T07:38:16;96944.78;;;29.82;67.86
31346;BME280;21711;49.708;18.568;2022-08-19T07:40:44;96941.00;;;29.72;71.76
31346;BME280;21711;49.708;18.568;2022-08-19T07:43:13;96947.34;;;29.61;70.53
31346;BME280;21711;49.708;18.568;2022-08-19T07:45:44;96954.56;;;29.40;70.62
31346;BME280;21711;49.708;18.568;2022-08-19T07:48:12;96950.97;;;29.12;70.77
31346;BME280;21711;49.708;18.568;2022-08-19T07:50:40;96950.78;;;28.92;72.90
31346;BME280;21711;49.708;18.568;2022-08-19T07:53:07;96953.91;;;28.91;75.33
31346;BME280;21711;49.708;18.568;2022-08-19T07:55:35;96951.28;;;29.22;73.58
31346;BME280;21711;49.708;18.568;2022-08-19T07:58:16;96954.19;;;31.07;64.47
31346;BME280;21711;49.708;18.568;2022-08-19T08:00:45;96958.06;;;32.95;58.85
31346;BME280;21711;49.708;18.568;2022-08-19T08:03:15;96961.69;;;34.06;53.29
31346;BME280;21711;49.708;18.568;2022-08-19T08:05:42;96962.00;;;35.09;45.31
31346;BME280;21711;49.708;18.568;2022-08-19T08:08:29;96960.31;;;35.11;48.43
31346;BME280;21711;49.708;18.568;2022-08-19T08:11:20;96954.94;;;35.43;44.75
31346;BME280;21711;49.708;18.568;2022-08-19T08:13:50;96962.78;;;35.54;45.30
31346;BME280;21711;49.708;18.568;2022-08-19T08:16:38;96956.28;;;33.90;49.14
31346;BME280;21711;49.708;18.568;2022-08-19T08:19:14;96953.91;;;33.19;51.46
31346;BME280;21711;49.708;18.568;2022-08-19T08:21:54;96946.91;;;32.56;53.27
31346;BME280;21711;49.708;18.568;2022-08-19T08:24:23;96943.06;;;31.99;50.52
31346;BME280;21711;49.708;18.568;2022-08-19T08:26:55;96949.28;;;31.43;56.47
31346;BME280;21711;49.708;18.568;2022-08-19T08:29:25;96946.22;;;30.96;51.85
31346;BME280;21711;49.708;18.568;2022-08-19T08:32:01;96944.59;;;30.99;54.83
31346;BME280;21711;49.708;18.568;2022-08-19T08:34:28;96939.41;;;30.84;55.27
31346;BME280;21711;49.708;18.568;2022-08-19T08:36:56;96946.28;;;31.13;55.60
31346;BME280;21711;49.708;18.568;2022-08-19T08:39:23;96950.75;;;31.03;54.12
31346;BME280;21711;49.708;18.568;2022-08-19T08:45:13;96945.88;;;30.43;56.74
31346;BME280;21711;49.708;18.568;2022-08-19T08:47:47;96944.03;;;30.36;57.15
31346;BME280;21711;49.708;18.568;2022-08-19T08:50:27;96940.53;;;30.36;57.43
31346;BME280;21711;49.708;18.568;2022-08-19T08:52:57;96937.41;;;32.27;47.62
31346;BME280;21711;49.708;18.568;2022-08-19T08:55:29;96950.97;;;35.22;43.07
31346;BME280;21711;49.708;18.568;2022-08-19T08:58:21;96943.38;;;34.91;41.64
31346;BME280;21711;49.708;18.568;2022-08-19T09:00:51;96945.94;;;34.59;43.93
31346;BME280;21711;49.708;18.568;2022-08-19T09:03:26;96946.28;;;35.54;42.69
31346;BME280;21711;49.708;18.568;2022-08-19T09:06:26;96948.47;;;35.14;43.21
31346;BME280;21711;49.708;18.568;2022-08-19T09:09:17;96946.13;;;35.26;40.70
31346;BME280;21711;49.708;18.568;2022-08-19T09:14:49;96940.75;;;32.98;46.69
31346;BME280;21711;49.708;18.568;2022-08-19T09:17:28;96943.25;;;33.81;44.10
31346;BME280;21711;49.708;18.568;2022-08-19T09:20:19;96939.56;;;35.55;42.28
31346;BME280;21711;49.708;18.568;2022-08-19T09:22:47;96940.88;;;35.95;39.17
31346;BME280;21711;49.708;18.568;2022-08-19T09:25:20;96942.75;;;35.09;38.69
31346;BME280;21711;49.708;18.568;2022-08-19T09:27:56;96931.22;;;34.17;42.61
31346;BME280;21711;49.708;18.568;2022-08-19T09:30:36;96941.28;;;34.46;42.31
31346;BME280;21711;49.708;18.568;2022-08-19T09:33:07;96944.44;;;35.28;41.11
31346;BME280;21711;49.708;18.568;2022-08-19T09:35:34;96936.31;;;36.61;39.58
31346;BME280;21711;49.708;18.568;2022-08-19T09:38:21;96939.75;;;37.93;36.49
31346;BME280;21711;49.708;18.568;2022-08-19T09:40:49;96940.03;;;39.02;34.73
31346;BME280;21711;49.708;18.568;2022-08-19T09:43:17;96943.41;;;40.32;32.25
31346;BME280;21711;49.708;18.568;2022-08-19T09:46:01;96944.63;;;40.67;31.51
31346;BME280;21711;49.708;18.568;2022-08-19T09:48:29;96941.97;;;40.52;31.18
31346;BME280;21711;49.708;18.568;2022-08-19T09:51:06;96947.34;;;40.41;31.54
31346;BME280;21711;49.708;18.568;2022-08-19T09:53:38;96938.78;;;38.88;33.05
31346;BME280;21711;49.708;18.568;2022-08-19T09:56:06;96942.41;;;39.79;32.40
31346;BME280;21711;49.708;18.568;2022-08-19T09:58:36;96935.59;;;40.67;32.20
31346;BME280;21711;49.708;18.568;2022-08-19T10:01:05;96940.31;;;41.61;29.97
31346;BME280;21711;49.708;18.568;2022-08-19T10:03:35;96937.94;;;42.62;25.86
31346;BME280;21711;49.708;18.568;2022-08-19T10:06:04;96927.47;;;41.63;26.36
31346;BME280;21711;49.708;18.568;2022-08-19T10:08:43;96923.63;;;38.83;30.50
31346;BME280;21711;49.708;18.568;2022-08-19T10:11:17;96915.31;;;37.76;33.87
31346;BME280;21711;49.708;18.568;2022-08-19T10:14:06;96912.84;;;38.85;33.29
31346;BME280;21711;49.708;18.568;2022-08-19T10:16:36;96927.59;;;40.54;31.60
31346;BME280;21711;49.708;18.568;2022-08-19T10:19:05;96917.09;;;40.58;30.60
31346;BME280;21711;49.708;18.568;2022-08-19T10:21:33;96912.31;;;41.06;31.08
31346;BME280;21711;49.708;18.568;2022-08-19T10:24:04;96918.06;;;41.55;29.78
31346;BME280;21711;49.708;18.568;2022-08-19T10:26:37;96908.97;;;41.22;27.80
31346;BME280;21711;49.708;18.568;2022-08-19T10:29:05;96915.75;;;40.74;30.07
31346;BME280;21711;49.708;18.568;2022-08-19T10:31:35;96909.53;;;40.37;29.30
31346;BME280;21711;49.708;18.568;2022-08-19T10:34:23;96915.19;;;39.47;30.49
31346;BME280;21711;49.708;18.568;2022-08-19T10:36:55;96909.78;;;38.68;32.02
31346;BME280;21711;49.708;18.568;2022-08-19T10:39:32;96912.78;;;38.55;33.28
31346;BME280;21711;49.708;18.568;2022-08-19T10:42:10;96905.22;;;37.63;34.89
31346;BME280;21711;49.708;18.568;2022-08-19T10:44:37;96905.16;;;36.92;35.73
31346;BME280;21711;49.708;18.568;2022-08-19T10:47:05;96910.59;;;37.58;37.12
31346;BME280;21711;49.708;18.568;2022-08-19T10:49:50;96919.31;;;39.06;32.27
31346;BME280;21711;49.708;18.568;2022-08-19T10:52:40;96917.56;;;39.84;31.48
31346;BME280;21711;49.708;18.568;2022-08-19T10:55:20;96913.94;;;39.93;30.55
31346;BME280;21711;49.708;18.568;2022-08-19T10:58:16;96912.59;;;38.10;32.38
31346;BME280;21711;49.708;18.568;2022-08-19T11:00:52;96911.41;;;37.30;36.18
31346;BME280;21711;49.708;18.568;2022-08-19T11:03:21;96911.66;;;37.70;33.46
31346;BME280;21711;49.708;18.568;2022-08-19T11:06:05;96913.72;;;39.61;31.90
31346;BME280;21711;49.708;18.568;2022-08-19T11:08:34;96911.41;;;40.26;30.05
31346;BME280;21711;49.708;18.568;2022-08-19T11:11:06;96910.34;;;40.65;29.92
31346;BME280;21711;49.708;18.568;2022-08-19T11:13:37;96914.03;;;40.97;29.39
31346;BME280;21711;49.708;18.568;2022-08-19T11:16:13;96917.44;;;41.39;30.10
31346;BME280;21711;49.708;18.568;2022-08-19T11:18:47;96917.50;;;41.77;29.44
31346;BME280;21711;49.708;18.568;2022-08-19T11:21:32;96915.34;;;41.61;27.98
31346;BME280;21711;49.708;18.568;2022-08-19T11:24:04;96907.06;;;41.08;27.98
31346;BME280;21711;49.708;18.568;2022-08-19T11:26:33;96908.03;;;41.05;28.36
31346;BME280;21711;49.708;18.568;2022-08-19T11:29:03;96905.72;;;40.76;29.21
31346;BME280;21711;49.708;18.568;2022-08-19T11:31:34;96898.50;;;39.87;28.78
31346;BME280;21711;49.708;18.568;2022-08-19T11:34:06;96881.34;;;38.52;30.10
31346;BME280;21711;49.708;18.568;2022-08-19T11:36:37;96889.31;;;38.75;30.70
31346;BME280;21711;49.708;18.568;2022-08-19T11:39:07;96889.41;;;39.20;29.56
31346;BME280;21711;49.708;18.568;2022-08-19T11:41:35;96889.69;;;39.52;30.42
31346;BME280;21711;49.708;18.568;2022-08-19T11:44:03;96892.50;;;40.24;30.09
31346;BME280;21711;49.708;18.568;2022-08-19T11:46:31;96886.56;;;39.80;28.11
31346;BME280;21711;49.708;18.568;2022-08-19T11:49:00;96889.88;;;39.33;29.31
31346;BME280;21711;49.708;18.568;2022-08-19T11:51:28;96890.44;;;39.68;29.99
31346;BME280;21711;49.708;18.568;2022-08-19T11:53:58;96892.59;;;39.79;29.96
31346;BME280;21711;49.708;18.568;2022-08-19T11:56:26;96891.31;;;40.31;28.68
31346;BME280;21711;49.708;18.568;2022-08-19T11:58:55;96887.47;;;39.71;26.92
31346;BME280;21711;49.708;18.568;2022-08-19T12:01:26;96878.31;;;39.05;30.06
31346;BME280;21711;49.708;18.568;2022-08-19T12:03:56;96873.44;;;37.87;31.53
31346;BME280;21711;49.708;18.568;2022-08-19T12:06:29;96865.06;;;37.72;31.70
31346;BME280;21711;49.708;18.568;2022-08-19T12:08:59;96865.38;;;37.74;32.66
31346;BME280;21711;49.708;18.568;2022-08-19T12:11:27;96869.97;;;37.15;33.35
31346;BME280;21711;49.708;18.568;2022-08-19T12:13:57;96869.03;;;36.43;33.91
31346;BME280;21711;49.708;18.568;2022-08-19T12:16:27;96870.19;;;36.14;33.89
31346;BME280;21711;49.708;18.568;2022-08-19T12:18:56;96853.13;;;35.78;33.91
31346;BME280;21711;49.708;18.568;2022-08-19T12:21:27;96864.69;;;35.73;35.25
31346;BME280;21711;49.708;18.568;2022-08-19T12:23:59;96855.41;;;35.48;35.30
31346;BME280;21711;49.708;18.568;2022-08-19T12:26:28;96859.94;;;35.33;36.42
31346;BME280;21711;49.708;18.568;2022-08-19T12:28:56;96853.72;;;34.97;38.84
31346;BME280;21711;49.708;18.568;2022-08-19T12:31:28;96864.13;;;34.80;42.25
31346;BME280;21711;49.708;18.568;2022-08-19T12:33:55;96857.28;;;34.84;42.74
31346;BME280;21711;49.708;18.568;2022-08-19T12:36:23;96853.34;;;35.08;41.49
31346;BME280;21711;49.708;18.568;2022-08-19T12:38:52;96855.56;;;35.45;37.49
31346;BME280;21711;49.708;18.568;2022-08-19T12:41:20;96859.16;;;35.64;39.61
31346;BME280;21711;49.708;18.568;2022-08-19T12:43:49;96870.59;;;35.94;42.41
31346;BME280;21711;49.708;18.568;2022-08-19T12:46:19;96864.88;;;36.20;38.99
31346;BME280;21711;49.708;18.568;2022-08-19T12:48:50;96867.03;;;36.44;40.11
31346;BME280;21711;49.708;18.568;2022-08-19T12:51:21;96859.22;;;36.33;38.22
31346;BME280;21711;49.708;18.568;2022-08-19T12:53:48;96864.88;;;36.29;40.19
31346;BME280;21711;49.708;18.568;2022-08-19T12:56:17;96856.34;;;36.27;39.54
31346;BME280;21711;49.708;18.568;2022-08-19T12:58:49;96858.97;;;36.78;40.24
31346;BME280;21711;49.708;18.568;2022-08-19T13:01:19;96860.75;;;37.09;39.32
31346;BME280;21711;49.708;18.568;2022-08-19T13:03:50;96862.16;;;37.23;35.35
31346;BME280;21711;49.708;18.568;2022-08-19T13:06:19;96849.00;;;36.99;33.99
31346;BME280;21711;49.708;18.568;2022-08-19T13:08:47;96853.16;;;36.76;35.72
31346;BME280;21711;49.708;18.568;2022-08-19T13:11:19;96848.66;;;37.06;33.18
31346;BME280;21711;49.708;18.568;2022-08-19T13:13:49;96845.50;;;36.80;32.88
31346;BME280;21711;49.708;18.568;2022-08-19T13:16:19;96844.13;;;36.56;33.21
31346;BME280;21711;49.708;18.568;2022-08-19T13:18:47;96841.66;;;36.49;31.97
31346;BME280;21711;49.708;18.568;2022-08-19T13:21:15;96844.44;;;36.68;35.51